Wetterdaten: Dienstag, 06.10.2015
Datum Zeit Temp. A. Feuchte A. Luftdruck Regen Wind Richtung Richtung Sonnenschein ET UV Solar Taupunkt Windchill Windben Empfang
06.10.2015 00:02 8,1 C 94 % 1011,9 hPa 0,0 l/m 0,0 km/h (0 Bft) O-NO 76 0 min 0,000 mm 0,0 UV-I 0 W/m 7,2 C 8,1 C 0,0 km/h (0 Bft) 0,00 %
06.10.2015 00:07 8,0 C 95 % 1011,7 hPa 0,0 l/m 0,0 km/h (0 Bft) O-NO 78 0 min 0,000 mm 0,0 UV-I 0 W/m 7,2 C 8,0 C 0,0 km/h (0 Bft) 0,00 %
06.10.2015 00:12 7,9 C 95 % 1011,6 hPa 0,0 l/m 0,0 km/h (0 Bft) O-NO 65 0 min 0,000 mm 0,0 UV-I 0 W/m 7,1 C 7,9 C 0,0 km/h (0 Bft) 0,00 %
06.10.2015 00:17 8,0 C 95 % 1011,6 hPa 0,0 l/m 0,0 km/h (0 Bft) O-NO 70 0 min 0,000 mm 0,0 UV-I 0 W/m 7,2 C 8,0 C 0,0 km/h (0 Bft) 0,00 %
06.10.2015 00:22 8,1 C 95 % 1011,6 hPa 0,0 l/m 0,0 km/h (0 Bft) O-NO 73 0 min 0,000 mm 0,0 UV-I 0 W/m 7,3 C 8,1 C 0,0 km/h (0 Bft) 0,00 %
06.10.2015 00:27 8,2 C 95 % 1011,6 hPa 0,0 l/m 0,0 km/h (0 Bft) O-NO 63 0 min 0,000 mm 0,0 UV-I 0 W/m 7,4 C 8,2 C 0,0 km/h (0 Bft) 0,00 %
06.10.2015 00:32 8,2 C 95 % 1011,5 hPa 0,0 l/m 0,0 km/h (0 Bft) O-NO 73 0 min 0,000 mm 0,0 UV-I 0 W/m 7,4 C 8,2 C 0,0 km/h (0 Bft) 0,00 %
06.10.2015 00:37 8,1 C 95 % 1011,5 hPa 0,0 l/m 0,0 km/h (0 Bft) O-NO 65 0 min 0,000 mm 0,0 UV-I 0 W/m 7,3 C 8,1 C 0,0 km/h (0 Bft) 0,00 %
06.10.2015 00:42 8,0 C 95 % 1011,5 hPa 0,0 l/m 0,0 km/h (0 Bft) O-NO 64 0 min 0,000 mm 0,0 UV-I 0 W/m 7,2 C 8,0 C 0,0 km/h (0 Bft) 0,00 %
06.10.2015 00:47 8,0 C 96 % 1011,5 hPa 0,0 l/m 0,0 km/h (0 Bft) O-NO 63 0 min 0,000 mm 0,0 UV-I 0 W/m 7,4 C 8,0 C 0,0 km/h (0 Bft) 0,00 %
06.10.2015 00:52 7,9 C 96 % 1011,6 hPa 0,0 l/m 0,0 km/h (0 Bft) O-NO 62 0 min 0,000 mm 0,0 UV-I 0 W/m 7,3 C 7,9 C 0,0 km/h (0 Bft) 0,00 %
06.10.2015 00:57 7,8 C 96 % 1011,5 hPa 0,0 l/m 0,0 km/h (0 Bft) NO 52 0 min 0,000 mm 0,0 UV-I 0 W/m 7,2 C 7,8 C 0,0 km/h (0 Bft) 0,00 %
06.10.2015 01:02 7,7 C 96 % 1011,3 hPa 0,0 l/m 0,0 km/h (0 Bft) O-NO 62 0 min 0,000 mm 0,0 UV-I 0 W/m 7,1 C 7,7 C 0,0 km/h (0 Bft) 0,00 %
06.10.2015 01:07 7,6 C 96 % 1011,1 hPa 0,0 l/m 0,0 km/h (0 Bft) O-NO 65 0 min 0,000 mm 0,0 UV-I 0 W/m 7,0 C 7,6 C 0,0 km/h (0 Bft) 0,00 %
06.10.2015 01:12 7,7 C 97 % 1011,1 hPa 0,0 l/m 0,0 km/h (0 Bft) NO 52 0 min 0,000 mm 0,0 UV-I 0 W/m 7,3 C 7,7 C 0,0 km/h (0 Bft) 0,00 %
06.10.2015 01:17 7,7 C 97 % 1010,9 hPa 0,0 l/m 0,0 km/h (0 Bft) O-NO 67 0 min 0,000 mm 0,0 UV-I 0 W/m 7,3 C 7,7 C 0,0 km/h (0 Bft) 0,00 %
06.10.2015 01:22 7,8 C 97 % 1010,8 hPa 0,0 l/m 0,0 km/h (0 Bft) O-NO 66 0 min 0,000 mm 0,0 UV-I 0 W/m 7,4 C 7,8 C 0,0 km/h (0 Bft) 0,00 %
06.10.2015 01:27 7,8 C 97 % 1010,9 hPa 0,0 l/m 0,0 km/h (0 Bft) O-NO 61 0 min 0,000 mm 0,0 UV-I 0 W/m 7,4 C 7,8 C 0,0 km/h (0 Bft) 0,00 %
06.10.2015 01:32 7,7 C 97 % 1010,8 hPa 0,0 l/m 0,0 km/h (0 Bft) O 80 0 min 0,000 mm 0,0 UV-I 0 W/m 7,3 C 7,7 C 0,0 km/h (0 Bft) 0,00 %
06.10.2015 01:37 7,5 C 97 % 1010,7 hPa 0,0 l/m 0,0 km/h (0 Bft) O-NO 59 0 min 0,000 mm 0,0 UV-I 0 W/m 7,1 C 7,5 C 0,0 km/h (0 Bft) 0,00 %
06.10.2015 01:42 7,5 C 97 % 1010,8 hPa 0,0 l/m 0,0 km/h (0 Bft) O-NO 63 0 min 0,000 mm 0,0 UV-I 0 W/m 7,1 C 7,5 C 0,0 km/h (0 Bft) 0,00 %
06.10.2015 01:47 7,5 C 97 % 1010,8 hPa 0,0 l/m 0,0 km/h (0 Bft) O-NO 64 0 min 0,000 mm 0,0 UV-I 0 W/m 7,1 C 7,5 C 0,0 km/h (0 Bft) 0,00 %
06.10.2015 01:52 7,4 C 96 % 1010,9 hPa 0,0 l/m 0,0 km/h (0 Bft) O-NO 61 0 min 0,000 mm 0,0 UV-I 0 W/m 6,8 C 7,4 C 0,0 km/h (0 Bft) 0,00 %
06.10.2015 01:57 7,4 C 96 % 1010,8 hPa 0,0 l/m 0,0 km/h (0 Bft) O-NO 59 0 min 0,000 mm 0,0 UV-I 0 W/m 6,8 C 7,4 C 0,0 km/h (0 Bft) 0,00 %
06.10.2015 02:02 7,4 C 96 % 1010,8 hPa 0,0 l/m 0,0 km/h (0 Bft) O-NO 61 0 min 0,000 mm 0,0 UV-I 0 W/m 6,8 C 7,4 C 0,0 km/h (0 Bft) 0,00 %
06.10.2015 02:07 7,3 C 96 % 1010,8 hPa 0,0 l/m 0,0 km/h (0 Bft) O-NO 63 0 min 0,000 mm 0,0 UV-I 0 W/m 6,7 C 7,3 C 0,0 km/h (0 Bft) 0,00 %
06.10.2015 02:12 7,2 C 96 % 1010,7 hPa 0,0 l/m 0,0 km/h (0 Bft) O-NO 71 0 min 0,000 mm 0,0 UV-I 0 W/m 6,6 C 7,2 C 0,0 km/h (0 Bft) 0,00 %
06.10.2015 02:17 7,0 C 96 % 1010,6 hPa 0,0 l/m 0,0 km/h (0 Bft) O-NO 66 0 min 0,000 mm 0,0 UV-I 0 W/m 6,4 C 7,0 C 0,0 km/h (0 Bft) 0,00 %
06.10.2015 02:22 7,1 C 96 % 1010,5 hPa 0,0 l/m 0,0 km/h (0 Bft) O-NO 69 0 min 0,000 mm 0,0 UV-I 0 W/m 6,5 C 7,1 C 0,0 km/h (0 Bft) 0,00 %
06.10.2015 02:27 7,2 C 96 % 1010,7 hPa 0,0 l/m 0,0 km/h (0 Bft) O-NO 63 0 min 0,000 mm 0,0 UV-I 0 W/m 6,6 C 7,2 C 0,0 km/h (0 Bft) 0,00 %
06.10.2015 02:32 7,3 C 96 % 1010,8 hPa 0,0 l/m 0,0 km/h (0 Bft) O 93 0 min 0,000 mm 0,0 UV-I 0 W/m 6,7 C 7,3 C 0,0 km/h (0 Bft) 0,00 %
06.10.2015 02:37 7,0 C 97 % 1010,8 hPa 0,0 l/m 0,0 km/h (0 Bft) O-SO 105 0 min 0,000 mm 0,0 UV-I 0 W/m 6,6 C 7,0 C 0,0 km/h (0 Bft) 0,00 %
06.10.2015 02:42 6,7 C 97 % 1010,5 hPa 0,0 l/m 0,0 km/h (0 Bft) O-NO 65 0 min 0,000 mm 0,0 UV-I 0 W/m 6,3 C 6,7 C 0,0 km/h (0 Bft) 0,00 %
06.10.2015 02:47 6,6 C 97 % 1010,4 hPa 0,0 l/m 0,0 km/h (0 Bft) O-NO 57 0 min 0,000 mm 0,0 UV-I 0 W/m 6,2 C 6,6 C 0,0 km/h (0 Bft) 0,00 %
06.10.2015 02:52 6,6 C 97 % 1010,4 hPa 0,0 l/m 0,0 km/h (0 Bft) O-NO 61 0 min 0,000 mm 0,0 UV-I 0 W/m 6,2 C 6,6 C 0,0 km/h (0 Bft) 0,00 %
06.10.2015 02:57 6,7 C 97 % 1010,6 hPa 0,0 l/m 0,0 km/h (0 Bft) O 95 0 min 0,000 mm 0,0 UV-I 0 W/m 6,3 C 6,7 C 0,0 km/h (0 Bft) 0,00 %
06.10.2015 03:02 6,8 C 97 % 1010,6 hPa 0,0 l/m 0,0 km/h (0 Bft) O 83 0 min 0,000 mm 0,0 UV-I 0 W/m 6,4 C 6,8 C 0,0 km/h (0 Bft) 0,00 %
06.10.2015 03:07 6,8 C 97 % 1010,5 hPa 0,0 l/m 0,0 km/h (0 Bft) O 85 0 min 0,000 mm 0,0 UV-I 0 W/m 6,4 C 6,8 C 0,0 km/h (0 Bft) 0,00 %
06.10.2015 03:12 6,8 C 97 % 1010,6 hPa 0,0 l/m 0,0 km/h (0 Bft) O-NO 73 0 min 0,000 mm 0,0 UV-I 0 W/m 6,4 C 6,8 C 0,0 km/h (0 Bft) 0,00 %
06.10.2015 03:17 6,8 C 97 % 1010,4 hPa 0,0 l/m 0,0 km/h (0 Bft) SO 125 0 min 0,000 mm 0,0 UV-I 0 W/m 6,4 C 6,8 C 0,0 km/h (0 Bft) 0,00 %
06.10.2015 03:22 6,8 C 97 % 1010,4 hPa 0,0 l/m 0,0 km/h (0 Bft) S 173 0 min 0,000 mm 0,0 UV-I 0 W/m 6,4 C 6,8 C 0,0 km/h (0 Bft) 0,00 %
06.10.2015 03:27 6,8 C 97 % 1010,5 hPa 0,0 l/m 0,0 km/h (0 Bft) S 172 0 min 0,000 mm 0,0 UV-I 0 W/m 6,4 C 6,8 C 0,0 km/h (0 Bft) 0,00 %
06.10.2015 03:32 6,8 C 97 % 1010,6 hPa 0,0 l/m 0,0 km/h (0 Bft) NO 53 0 min 0,000 mm 0,0 UV-I 0 W/m 6,4 C 6,8 C 0,0 km/h (0 Bft) 0,00 %
06.10.2015 03:37 6,8 C 97 % 1010,6 hPa 0,0 l/m 0,0 km/h (0 Bft) SO 134 0 min 0,000 mm 0,0 UV-I 0 W/m 6,4 C 6,8 C 0,0 km/h (0 Bft) 0,00 %
06.10.2015 03:42 6,8 C 97 % 1010,5 hPa 0,0 l/m 0,0 km/h (0 Bft) O-NO 68 0 min 0,000 mm 0,0 UV-I 0 W/m 6,4 C 6,8 C 0,0 km/h (0 Bft) 0,00 %
06.10.2015 03:47 6,8 C 97 % 1010,6 hPa 0,0 l/m 0,0 km/h (0 Bft) O-NO 58 0 min 0,000 mm 0,0 UV-I 0 W/m 6,4 C 6,8 C 0,0 km/h (0 Bft) 0,00 %
06.10.2015 03:52 6,8 C 97 % 1010,6 hPa 0,0 l/m 0,0 km/h (0 Bft) O-NO 72 0 min 0,000 mm 0,0 UV-I 0 W/m 6,4 C 6,8 C 0,0 km/h (0 Bft) 0,00 %
06.10.2015 03:57 6,9 C 96 % 1010,5 hPa 0,0 l/m 0,0 km/h (0 Bft) O-NO 66 0 min 0,000 mm 0,0 UV-I 0 W/m 6,3 C 6,9 C 0,0 km/h (0 Bft) 0,00 %
06.10.2015 04:02 6,9 C 96 % 1010,6 hPa 0,0 l/m 0,0 km/h (0 Bft) O 86 0 min 0,000 mm 0,0 UV-I 0 W/m 6,3 C 6,9 C 0,0 km/h (0 Bft) 0,00 %
06.10.2015 04:07 6,9 C 96 % 1010,5 hPa 0,0 l/m 0,0 km/h (0 Bft) O-SO 109 0 min 0,000 mm 0,0 UV-I 0 W/m 6,3 C 6,9 C 0,0 km/h (0 Bft) 0,00 %
06.10.2015 04:12 7,0 C 96 % 1010,8 hPa 0,0 l/m 2,9 km/h (1 Bft) S 180 0 min 0,000 mm 0,0 UV-I 0 W/m 6,4 C 7,0 C 7,9 km/h (2 Bft) 0,00 %
06.10.2015 04:17 7,0 C 96 % 1010,7 hPa 0,0 l/m 0,0 km/h (0 Bft) O 90 0 min 0,000 mm 0,0 UV-I 0 W/m 6,4 C 7,0 C 0,0 km/h (0 Bft) 0,00 %
06.10.2015 04:22 7,1 C 96 % 1010,8 hPa 0,0 l/m 0,4 km/h (0 Bft) SO 134 0 min 0,000 mm 0,0 UV-I 0 W/m 6,5 C 7,1 C 4,0 km/h (1 Bft) 0,00 %
06.10.2015 04:27 7,1 C 96 % 1010,7 hPa 0,0 l/m 0,0 km/h (0 Bft) O-SO 115 0 min 0,000 mm 0,0 UV-I 0 W/m 6,5 C 7,1 C 0,0 km/h (0 Bft) 0,00 %
06.10.2015 04:32 7,2 C 96 % 1010,8 hPa 0,0 l/m 0,7 km/h (0 Bft) S-SO 165 0 min 0,000 mm 0,0 UV-I 0 W/m 6,6 C 7,2 C 4,0 km/h (1 Bft) 0,00 %
06.10.2015 04:37 7,2 C 96 % 1010,5 hPa 0,0 l/m 0,0 km/h (0 Bft) O 96 0 min 0,000 mm 0,0 UV-I 0 W/m 6,6 C 7,2 C 0,0 km/h (0 Bft) 0,00 %
06.10.2015 04:42 7,3 C 96 % 1010,6 hPa 0,0 l/m 0,0 km/h (0 Bft) S 173 0 min 0,000 mm 0,0 UV-I 0 W/m 6,7 C 7,3 C 0,0 km/h (0 Bft) 0,00 %
06.10.2015 04:47 7,3 C 96 % 1010,5 hPa 0,0 l/m 0,0 km/h (0 Bft) S 173 0 min 0,000 mm 0,0 UV-I 0 W/m 6,7 C 7,3 C 0,0 km/h (0 Bft) 0,00 %
06.10.2015 04:52 7,3 C 96 % 1010,6 hPa 0,0 l/m 0,0 km/h (0 Bft) S-SO 158 0 min 0,000 mm 0,0 UV-I 0 W/m 6,7 C 7,3 C 0,0 km/h (0 Bft) 0,00 %
06.10.2015 04:57 7,4 C 96 % 1010,8 hPa 0,0 l/m 0,0 km/h (0 Bft) S 180 0 min 0,000 mm 0,0 UV-I 0 W/m 6,8 C 7,4 C 0,0 km/h (0 Bft) 0,00 %
06.10.2015 05:02 7,4 C 96 % 1010,6 hPa 0,0 l/m 0,0 km/h (0 Bft) S 175 0 min 0,000 mm 0,0 UV-I 0 W/m 6,8 C 7,4 C 0,0 km/h (0 Bft) 0,00 %
06.10.2015 05:07 7,5 C 96 % 1010,6 hPa 0,0 l/m 0,0 km/h (0 Bft) S 174 0 min 0,000 mm 0,0 UV-I 0 W/m 6,9 C 7,5 C 0,0 km/h (0 Bft) 0,00 %
06.10.2015 05:12 7,5 C 96 % 1010,5 hPa 0,0 l/m 0,0 km/h (0 Bft) S 174 0 min 0,000 mm 0,0 UV-I 0 W/m 6,9 C 7,5 C 0,0 km/h (0 Bft) 0,00 %
06.10.2015 05:17 7,6 C 96 % 1010,3 hPa 0,0 l/m 0,0 km/h (0 Bft) SO 139 0 min 0,000 mm 0,0 UV-I 0 W/m 7,0 C 7,6 C 0,0 km/h (0 Bft) 0,00 %
06.10.2015 05:22 7,6 C 96 % 1010,3 hPa 0,0 l/m 0,0 km/h (0 Bft) O 97 0 min 0,000 mm 0,0 UV-I 0 W/m 7,0 C 7,6 C 0,0 km/h (0 Bft) 0,00 %
06.10.2015 05:27 7,7 C 96 % 1010,6 hPa 0,0 l/m 0,0 km/h (0 Bft) W-SW 256 0 min 0,000 mm 0,0 UV-I 0 W/m 7,1 C 7,7 C 0,0 km/h (0 Bft) 0,00 %
06.10.2015 05:32 7,7 C 96 % 1010,3 hPa 0,0 l/m 0,0 km/h (0 Bft) O 99 0 min 0,000 mm 0,0 UV-I 0 W/m 7,1 C 7,7 C 0,0 km/h (0 Bft) 0,00 %
06.10.2015 05:37 7,7 C 96 % 1010,6 hPa 0,0 l/m 0,0 km/h (0 Bft) NO 54 0 min 0,000 mm 0,0 UV-I 0 W/m 7,1 C 7,7 C 0,0 km/h (0 Bft) 0,00 %
06.10.2015 05:42 7,7 C 96 % 1010,4 hPa 0,0 l/m 0,0 km/h (0 Bft) N-NO 25 0 min 0,000 mm 0,0 UV-I 0 W/m 7,1 C 7,7 C 0,0 km/h (0 Bft) 0,00 %
06.10.2015 05:47 7,7 C 96 % 1010,6 hPa 0,0 l/m 0,0 km/h (0 Bft) O-NO 66 0 min 0,000 mm 0,0 UV-I 0 W/m 7,1 C 7,7 C 0,0 km/h (0 Bft) 0,00 %
06.10.2015 05:52 7,7 C 96 % 1010,3 hPa 0,0 l/m 0,0 km/h (0 Bft) O-NO 69 0 min 0,000 mm 0,0 UV-I 0 W/m 7,1 C 7,7 C 0,0 km/h (0 Bft) 0,00 %
06.10.2015 05:57 7,7 C 96 % 1010,2 hPa 0,0 l/m 0,0 km/h (0 Bft) O-NO 64 0 min 0,000 mm 0,0 UV-I 0 W/m 7,1 C 7,7 C 0,0 km/h (0 Bft) 0,00 %
06.10.2015 06:02 7,7 C 96 % 1010,3 hPa 0,0 l/m 0,0 km/h (0 Bft) O-NO 57 0 min 0,000 mm 0,0 UV-I 0 W/m 7,1 C 7,7 C 0,0 km/h (0 Bft) 0,00 %
06.10.2015 06:07 7,8 C 96 % 1010,5 hPa 0,0 l/m 0,0 km/h (0 Bft) O-NO 62 0 min 0,000 mm 0,0 UV-I 0 W/m 7,2 C 7,8 C 0,0 km/h (0 Bft) 0,00 %
06.10.2015 06:12 7,8 C 96 % 1010,4 hPa 0,0 l/m 0,0 km/h (0 Bft) O-NO 66 0 min 0,000 mm 0,0 UV-I 0 W/m 7,2 C 7,8 C 0,0 km/h (0 Bft) 0,00 %
06.10.2015 06:17 7,8 C 96 % 1010,3 hPa 0,0 l/m 0,0 km/h (0 Bft) O-NO 77 0 min 0,000 mm 0,0 UV-I 0 W/m 7,2 C 7,8 C 0,0 km/h (0 Bft) 0,00 %
06.10.2015 06:22 7,8 C 96 % 1010,5 hPa 0,0 l/m 0,0 km/h (0 Bft) O-NO 63 0 min 0,000 mm 0,0 UV-I 0 W/m 7,2 C 7,8 C 0,0 km/h (0 Bft) 0,00 %
06.10.2015 06:27 7,8 C 96 % 1010,5 hPa 0,0 l/m 0,0 km/h (0 Bft) O-NO 64 0 min 0,000 mm 0,0 UV-I 0 W/m 7,2 C 7,8 C 0,0 km/h (0 Bft) 0,00 %
06.10.2015 06:32 7,9 C 95 % 1010,5 hPa 0,0 l/m 0,0 km/h (0 Bft) O-NO 64 0 min 0,000 mm 0,0 UV-I 0 W/m 7,1 C 7,9 C 0,0 km/h (0 Bft) 0,00 %
06.10.2015 06:37 7,9 C 95 % 1010,4 hPa 0,0 l/m 0,0 km/h (0 Bft) O-NO 62 0 min 0,000 mm 0,0 UV-I 0 W/m 7,1 C 7,9 C 0,0 km/h (0 Bft) 0,00 %
06.10.2015 06:42 7,9 C 96 % 1010,4 hPa 0,0 l/m 0,0 km/h (0 Bft) O-NO 62 0 min 0,000 mm 0,0 UV-I 0 W/m 7,3 C 7,9 C 0,0 km/h (0 Bft) 0,00 %
06.10.2015 06:47 7,9 C 96 % 1010,4 hPa 0,0 l/m 0,0 km/h (0 Bft) O-NO 58 0 min 0,000 mm 0,0 UV-I 0 W/m 7,3 C 7,9 C 0,0 km/h (0 Bft) 0,00 %
06.10.2015 06:52 7,9 C 96 % 1010,4 hPa 0,0 l/m 0,0 km/h (0 Bft) O 85 0 min 0,000 mm 0,0 UV-I 0 W/m 7,3 C 7,9 C 0,0 km/h (0 Bft) 0,00 %
06.10.2015 06:57 7,9 C 96 % 1010,4 hPa 0,0 l/m 0,0 km/h (0 Bft) O 85 0 min 0,000 mm 0,0 UV-I 0 W/m 7,3 C 7,9 C 0,0 km/h (0 Bft) 0,00 %
06.10.2015 07:02 7,8 C 96 % 1010,5 hPa 0,0 l/m 0,0 km/h (0 Bft) O 84 0 min 0,000 mm 0,0 UV-I 0 W/m 7,2 C 7,8 C 0,0 km/h (0 Bft) 0,00 %
06.10.2015 07:07 7,8 C 96 % 1010,6 hPa 0,0 l/m 0,0 km/h (0 Bft) O 84 0 min 0,000 mm 0,0 UV-I 0 W/m 7,2 C 7,8 C 0,0 km/h (0 Bft) 0,00 %
06.10.2015 07:12 7,8 C 96 % 1010,5 hPa 0,0 l/m 0,0 km/h (0 Bft) O-NO 57 0 min 0,000 mm 0,0 UV-I 0 W/m 7,2 C 7,8 C 0,0 km/h (0 Bft) 0,00 %
06.10.2015 07:17 7,8 C 96 % 1010,5 hPa 0,0 l/m 0,0 km/h (0 Bft) O-NO 66 0 min 0,000 mm 0,0 UV-I 0 W/m 7,2 C 7,8 C 0,0 km/h (0 Bft) 0,00 %
06.10.2015 07:22 7,8 C 95 % 1010,7 hPa 0,0 l/m 0,0 km/h (0 Bft) O-NO 65 0 min 0,000 mm 0,0 UV-I 0 W/m 7,0 C 7,8 C 0,0 km/h (0 Bft) 0,00 %
06.10.2015 07:27 7,9 C 95 % 1010,7 hPa 0,0 l/m 0,0 km/h (0 Bft) O-NO 65 0 min 0,000 mm 0,0 UV-I 2 W/m 7,1 C 7,9 C 0,0 km/h (0 Bft) 0,00 %
06.10.2015 07:32 8,0 C 95 % 1010,8 hPa 0,0 l/m 0,0 km/h (0 Bft) O-SO 115 0 min 0,000 mm 0,0 UV-I 6 W/m 7,2 C 8,0 C 0,0 km/h (0 Bft) 0,00 %
06.10.2015 07:37 8,0 C 96 % 1010,8 hPa 0,3 l/m 0,0 km/h (0 Bft) O-NO 74 0 min 0,000 mm 0,0 UV-I 7 W/m 7,4 C 8,0 C 0,0 km/h (0 Bft) 0,00 %
06.10.2015 07:42 8,1 C 96 % 1011,0 hPa 0,0 l/m 0,0 km/h (0 Bft) O 89 0 min 0,000 mm 0,0 UV-I 7 W/m 7,5 C 8,1 C 0,0 km/h (0 Bft) 0,00 %
06.10.2015 07:47 8,2 C 96 % 1010,8 hPa 0,0 l/m 0,0 km/h (0 Bft) O 89 0 min 0,000 mm 0,0 UV-I 5 W/m 7,6 C 8,2 C 0,0 km/h (0 Bft) 0,00 %
06.10.2015 07:52 8,2 C 96 % 1010,9 hPa 0,0 l/m 0,0 km/h (0 Bft) O 89 0 min 0,000 mm 0,0 UV-I 6 W/m 7,6 C 8,2 C 0,0 km/h (0 Bft) 0,00 %
06.10.2015 07:57 8,3 C 96 % 1010,8 hPa 0,0 l/m 0,0 km/h (0 Bft) O 87 0 min 0,000 mm 0,0 UV-I 16 W/m 7,7 C 8,3 C 0,0 km/h (0 Bft) 0,00 %
06.10.2015 08:02 8,4 C 96 % 1010,9 hPa 0,0 l/m 0,0 km/h (0 Bft) O 87 0 min 0,000 mm 0,0 UV-I 23 W/m 7,8 C 8,4 C 0,0 km/h (0 Bft) 0,00 %
06.10.2015 08:07 8,5 C 96 % 1010,9 hPa 0,0 l/m 0,0 km/h (0 Bft) O 87 0 min 0,000 mm 0,0 UV-I 28 W/m 7,9 C 8,5 C 0,0 km/h (0 Bft) 0,00 %
06.10.2015 08:12 8,6 C 96 % 1010,7 hPa 0,0 l/m 0,0 km/h (0 Bft) O 87 0 min 0,000 mm 0,0 UV-I 32 W/m 8,0 C 8,6 C 0,0 km/h (0 Bft) 0,00 %
06.10.2015 08:18 8,7 C 96 % 1010,9 hPa 0,0 l/m 0,0 km/h (0 Bft) O 100 0 min 0,000 mm 0,0 UV-I 40 W/m 8,1 C 8,7 C 0,0 km/h (0 Bft) 0,00 %
06.10.2015 08:23 8,8 C 95 % 1011,2 hPa 0,0 l/m 0,0 km/h (0 Bft) O-NO 69 0 min 0,000 mm 0,0 UV-I 44 W/m 8,0 C 8,8 C 0,0 km/h (0 Bft) 0,00 %
06.10.2015 08:28 8,9 C 95 % 1010,9 hPa 0,0 l/m 0,0 km/h (0 Bft) O 92 0 min 0,000 mm 0,0 UV-I 50 W/m 8,1 C 8,9 C 0,0 km/h (0 Bft) 0,00 %
06.10.2015 08:33 9,0 C 95 % 1011,0 hPa 0,0 l/m 0,0 km/h (0 Bft) NO 45 0 min 0,000 mm 0,0 UV-I 57 W/m 8,2 C 9,0 C 0,0 km/h (0 Bft) 0,00 %
06.10.2015 08:38 9,2 C 95 % 1011,1 hPa 0,0 l/m 0,0 km/h (0 Bft) O-NO 62 0 min 0,000 mm 0,0 UV-I 59 W/m 8,4 C 9,2 C 0,0 km/h (0 Bft) 0,00 %
06.10.2015 08:43 9,3 C 95 % 1011,1 hPa 0,0 l/m 0,0 km/h (0 Bft) O-NO 63 0 min 0,000 mm 0,0 UV-I 60 W/m 8,5 C 9,3 C 0,0 km/h (0 Bft) 0,00 %
06.10.2015 08:48 9,4 C 95 % 1011,1 hPa 0,0 l/m 0,0 km/h (0 Bft) O-NO 65 0 min 0,000 mm 0,0 UV-I 64 W/m 8,6 C 9,4 C 0,0 km/h (0 Bft) 0,00 %
06.10.2015 08:53 9,5 C 95 % 1010,9 hPa 0,0 l/m 0,0 km/h (0 Bft) O-NO 72 0 min 0,000 mm 0,0 UV-I 63 W/m 8,7 C 9,5 C 0,0 km/h (0 Bft) 0,00 %
06.10.2015 08:58 9,5 C 95 % 1010,9 hPa 0,0 l/m 0,0 km/h (0 Bft) NO 54 0 min 0,000 mm 0,0 UV-I 65 W/m 8,7 C 9,5 C 0,0 km/h (0 Bft) 0,00 %
06.10.2015 09:03 9,6 C 95 % 1010,7 hPa 0,0 l/m 0,0 km/h (0 Bft) O-NO 67 0 min 0,000 mm 0,0 UV-I 58 W/m 8,8 C 9,6 C 0,0 km/h (0 Bft) 0,00 %
06.10.2015 09:08 9,7 C 95 % 1010,7 hPa 0,0 l/m 0,0 km/h (0 Bft) O-NO 66 0 min 0,000 mm 0,0 UV-I 50 W/m 8,9 C 9,7 C 0,0 km/h (0 Bft) 0,00 %
06.10.2015 09:13 9,9 C 93 % 1010,8 hPa 0,0 l/m 0,0 km/h (0 Bft) O-NO 70 0 min 0,000 mm 0,0 UV-I 49 W/m 8,8 C 9,9 C 0,0 km/h (0 Bft) 0,00 %
06.10.2015 09:18 9,9 C 93 % 1010,9 hPa 0,0 l/m 0,0 km/h (0 Bft) O-NO 77 0 min 0,000 mm 0,0 UV-I 54 W/m 8,8 C 9,9 C 0,0 km/h (0 Bft) 0,00 %
06.10.2015 09:23 9,9 C 94 % 1010,6 hPa 0,0 l/m 0,0 km/h (0 Bft) O-NO 69 0 min 0,000 mm 0,0 UV-I 69 W/m 9,0 C 9,9 C 0,0 km/h (0 Bft) 0,00 %
06.10.2015 09:28 9,9 C 92 % 1010,6 hPa 0,0 l/m 0,0 km/h (0 Bft) O 79 0 min 0,000 mm 0,0 UV-I 88 W/m 8,7 C 9,9 C 0,0 km/h (0 Bft) 0,00 %
06.10.2015 09:33 9,9 C 92 % 1010,6 hPa 0,0 l/m 0,0 km/h (0 Bft) O-NO 77 0 min 0,000 mm 1,0 UV-I 91 W/m 8,7 C 9,9 C 0,0 km/h (0 Bft) 0,00 %
06.10.2015 09:38 10,0 C 92 % 1010,7 hPa 0,0 l/m 0,0 km/h (0 Bft) NO 44 0 min 0,000 mm 1,0 UV-I 103 W/m 8,8 C 10,0 C 0,0 km/h (0 Bft) 0,00 %
06.10.2015 09:43 10,1 C 91 % 1010,5 hPa 0,0 l/m 0,0 km/h (0 Bft) O-NO 68 0 min 0,000 mm 1,0 UV-I 131 W/m 8,7 C 10,1 C 0,0 km/h (0 Bft) 0,00 %
06.10.2015 09:48 10,2 C 91 % 1010,5 hPa 0,0 l/m 0,0 km/h (0 Bft) O 79 0 min 0,000 mm 1,0 UV-I 121 W/m 8,8 C 10,2 C 0,0 km/h (0 Bft) 0,00 %
06.10.2015 09:53 10,3 C 91 % 1010,8 hPa 0,0 l/m 0,0 km/h (0 Bft) O-NO 59 0 min 0,000 mm 1,0 UV-I 112 W/m 8,9 C 10,3 C 0,0 km/h (0 Bft) 0,00 %
06.10.2015 09:58 10,4 C 90 % 1010,6 hPa 0,0 l/m 0,0 km/h (0 Bft) O-NO 58 0 min 0,000 mm 1,0 UV-I 141 W/m 8,8 C 10,4 C 0,0 km/h (0 Bft) 0,00 %
06.10.2015 10:03 10,5 C 90 % 1010,4 hPa 0,0 l/m 3,2 km/h (1 Bft) O-SO 108 0 min 0,000 mm 1,0 UV-I 180 W/m 8,9 C 10,5 C 4,0 km/h (1 Bft) 0,00 %
06.10.2015 10:08 10,6 C 90 % 1010,5 hPa 0,0 l/m 0,0 km/h (0 Bft) O-NO 75 0 min 0,000 mm 1,0 UV-I 195 W/m 9,0 C 10,6 C 0,0 km/h (0 Bft) 0,00 %
06.10.2015 10:13 10,7 C 89 % 1010,4 hPa 0,0 l/m 0,0 km/h (0 Bft) O-NO 61 0 min 0,000 mm 1,0 UV-I 190 W/m 9,0 C 10,7 C 0,0 km/h (0 Bft) 0,00 %
06.10.2015 10:18 10,9 C 88 % 1010,3 hPa 0,0 l/m 4,7 km/h (1 Bft) O 84 0 min 0,000 mm 1,0 UV-I 176 W/m 9,0 C 10,9 C 7,9 km/h (2 Bft) 0,00 %
06.10.2015 10:23 10,9 C 86 % 1010,3 hPa 0,0 l/m 1,8 km/h (1 Bft) O 94 0 min 0,000 mm 1,0 UV-I 176 W/m 8,7 C 10,9 C 4,0 km/h (1 Bft) 0,00 %
06.10.2015 10:28 11,0 C 86 % 1010,2 hPa 0,0 l/m 4,3 km/h (1 Bft) O 97 0 min 0,000 mm 1,0 UV-I 184 W/m 8,7 C 11,0 C 7,9 km/h (2 Bft) 0,00 %
06.10.2015 10:33 11,0 C 85 % 1010,3 hPa 0,0 l/m 0,7 km/h (0 Bft) O 97 0 min 0,000 mm 1,0 UV-I 203 W/m 8,6 C 11,0 C 4,0 km/h (1 Bft) 0,00 %
06.10.2015 10:38 11,0 C 84 % 1010,5 hPa 0,0 l/m 5,4 km/h (1 Bft) SO 128 0 min 0,000 mm 1,0 UV-I 212 W/m 8,4 C 11,0 C 7,9 km/h (2 Bft) 0,00 %
06.10.2015 10:43 11,2 C 83 % 1010,4 hPa 0,0 l/m 1,4 km/h (1 Bft) NO 38 0 min 0,000 mm 1,0 UV-I 244 W/m 8,4 C 11,2 C 4,0 km/h (1 Bft) 0,00 %
06.10.2015 10:48 11,4 C 83 % 1010,3 hPa 0,0 l/m 4,3 km/h (1 Bft) O-NO 64 5 min 0,000 mm 1,0 UV-I 314 W/m 8,6 C 11,4 C 7,9 km/h (2 Bft) 0,00 %
06.10.2015 10:53 11,7 C 84 % 1010,0 hPa 0,0 l/m 1,4 km/h (1 Bft) O-NO 66 5 min 0,000 mm 2,0 UV-I 369 W/m 9,1 C 11,7 C 4,0 km/h (1 Bft) 0,00 %
06.10.2015 10:58 12,0 C 83 % 1009,9 hPa 0,0 l/m 0,0 km/h (0 Bft) NO 47 5 min 0,000 mm 2,0 UV-I 386 W/m 9,2 C 12,0 C 0,0 km/h (0 Bft) 0,00 %
06.10.2015 11:03 12,4 C 81 % 1010,0 hPa 0,0 l/m 5,4 km/h (1 Bft) O 96 5 min 0,000 mm 2,0 UV-I 349 W/m 9,2 C 12,4 C 7,9 km/h (2 Bft) 0,00 %
06.10.2015 11:08 12,8 C 80 % 1009,9 hPa 0,0 l/m 9,0 km/h (2 Bft) O 97 5 min 0,000 mm 2,0 UV-I 331 W/m 9,4 C 11,2 C 11,9 km/h (2 Bft) 0,00 %
06.10.2015 11:13 12,8 C 81 % 1009,8 hPa 0,0 l/m 7,9 km/h (2 Bft) O-NO 75 5 min 0,000 mm 2,0 UV-I 322 W/m 9,6 C 11,9 C 11,9 km/h (2 Bft) 0,00 %
06.10.2015 11:18 12,7 C 81 % 1009,6 hPa 0,0 l/m 4,3 km/h (1 Bft) O-NO 65 5 min 0,000 mm 1,0 UV-I 317 W/m 9,5 C 12,7 C 7,9 km/h (2 Bft) 0,00 %
06.10.2015 11:23 12,7 C 82 % 1009,3 hPa 0,0 l/m 4,3 km/h (1 Bft) O-SO 112 5 min 0,000 mm 2,0 UV-I 329 W/m 9,7 C 12,7 C 7,9 km/h (2 Bft) 0,00 %
06.10.2015 11:28 12,9 C 79 % 1009,4 hPa 0,0 l/m 2,9 km/h (1 Bft) NO 46 5 min 0,000 mm 2,0 UV-I 346 W/m 9,3 C 12,9 C 7,9 km/h (2 Bft) 0,00 %
06.10.2015 11:33 13,2 C 76 % 1009,5 hPa 0,0 l/m 1,8 km/h (1 Bft) NO 49 5 min 0,000 mm 2,0 UV-I 338 W/m 9,1 C 13,2 C 4,0 km/h (1 Bft) 0,00 %
06.10.2015 11:38 13,6 C 74 % 1009,4 hPa 0,0 l/m 6,5 km/h (2 Bft) O-NO 78 5 min 0,000 mm 2,0 UV-I 369 W/m 9,1 C 13,6 C 7,9 km/h (2 Bft) 0,00 %
06.10.2015 11:43 13,9 C 71 % 1009,4 hPa 0,0 l/m 0,0 km/h (0 Bft) O-NO 60 5 min 0,000 mm 2,0 UV-I 389 W/m 8,7 C 13,9 C 0,0 km/h (0 Bft) 0,00 %
06.10.2015 11:48 14,1 C 72 % 1009,4 hPa 0,0 l/m 7,2 km/h (2 Bft) O-NO 58 5 min 0,000 mm 2,0 UV-I 439 W/m 9,1 C 13,6 C 11,9 km/h (2 Bft) 0,00 %
06.10.2015 11:53 14,3 C 72 % 1009,2 hPa 0,0 l/m 2,2 km/h (1 Bft) O-NO 64 5 min 0,000 mm 2,0 UV-I 501 W/m 9,3 C 14,3 C 4,0 km/h (1 Bft) 0,00 %
06.10.2015 11:58 14,6 C 71 % 1009,1 hPa 0,0 l/m 5,4 km/h (1 Bft) O 89 5 min 0,000 mm 2,0 UV-I 432 W/m 9,4 C 14,6 C 7,9 km/h (2 Bft) 0,00 %
06.10.2015 12:03 14,6 C 71 % 1009,4 hPa 0,0 l/m 0,4 km/h (0 Bft) O-NO 58 5 min 0,000 mm 2,0 UV-I 371 W/m 9,4 C 14,6 C 4,0 km/h (1 Bft) 0,00 %
06.10.2015 12:08 14,5 C 71 % 1009,2 hPa 0,0 l/m 0,0 km/h (0 Bft) NO 43 5 min 0,000 mm 2,0 UV-I 367 W/m 9,3 C 14,5 C 0,0 km/h (0 Bft) 0,00 %
06.10.2015 12:13 14,5 C 70 % 1009,1 hPa 0,0 l/m 9,7 km/h (2 Bft) O-NO 62 5 min 0,000 mm 1,0 UV-I 351 W/m 9,1 C 12,7 C 11,9 km/h (2 Bft) 0,00 %
06.10.2015 12:18 14,5 C 69 % 1009,0 hPa 0,0 l/m 4,7 km/h (1 Bft) O-SO 110 5 min 0,000 mm 2,0 UV-I 355 W/m 8,9 C 14,5 C 7,9 km/h (2 Bft) 0,00 %
06.10.2015 12:23 14,5 C 71 % 1009,1 hPa 0,0 l/m 0,4 km/h (0 Bft) O-NO 71 5 min 0,000 mm 2,0 UV-I 359 W/m 9,3 C 14,5 C 4,0 km/h (1 Bft) 0,00 %
06.10.2015 12:28 14,7 C 70 % 1009,1 hPa 0,0 l/m 2,9 km/h (1 Bft) O 82 5 min 0,000 mm 2,0 UV-I 361 W/m 9,3 C 14,7 C 4,0 km/h (1 Bft) 0,00 %
06.10.2015 12:33 14,8 C 70 % 1008,9 hPa 0,0 l/m 3,2 km/h (1 Bft) O-NO 65 5 min 0,000 mm 2,0 UV-I 389 W/m 9,4 C 14,8 C 7,9 km/h (2 Bft) 0,00 %
06.10.2015 12:38 14,9 C 69 % 1008,9 hPa 0,0 l/m 0,0 km/h (0 Bft) O-NO 65 5 min 0,000 mm 2,0 UV-I 413 W/m 9,3 C 14,9 C 0,0 km/h (0 Bft) 0,00 %
06.10.2015 12:43 15,1 C 69 % 1009,0 hPa 0,0 l/m 1,8 km/h (1 Bft) O-NO 62 5 min 0,000 mm 2,0 UV-I 404 W/m 9,5 C 15,1 C 4,0 km/h (1 Bft) 0,00 %
06.10.2015 12:48 15,1 C 68 % 1009,0 hPa 0,0 l/m 2,9 km/h (1 Bft) O-NO 75 5 min 0,000 mm 2,0 UV-I 408 W/m 9,2 C 15,1 C 7,9 km/h (2 Bft) 0,00 %
06.10.2015 12:53 15,1 C 68 % 1008,7 hPa 0,0 l/m 5,8 km/h (2 Bft) NO 56 5 min 0,000 mm 2,0 UV-I 438 W/m 9,2 C 15,1 C 7,9 km/h (2 Bft) 0,00 %
06.10.2015 12:58 15,1 C 67 % 1008,6 hPa 0,0 l/m 6,8 km/h (2 Bft) O-NO 68 5 min 0,000 mm 2,0 UV-I 453 W/m 9,0 C 14,9 C 7,9 km/h (2 Bft) 0,00 %
06.10.2015 13:03 15,2 C 64 % 1008,7 hPa 0,0 l/m 3,2 km/h (1 Bft) O 86 5 min 0,000 mm 2,0 UV-I 444 W/m 8,4 C 15,2 C 7,9 km/h (2 Bft) 0,00 %
06.10.2015 13:08 15,4 C 65 % 1008,7 hPa 0,0 l/m 7,9 km/h (2 Bft) O 86 5 min 0,000 mm 2,0 UV-I 465 W/m 8,9 C 14,6 C 7,9 km/h (2 Bft) 0,00 %
06.10.2015 13:13 15,5 C 65 % 1008,4 hPa 0,0 l/m 8,3 km/h (2 Bft) O-SO 111 5 min 0,000 mm 2,0 UV-I 480 W/m 8,9 C 14,5 C 11,9 km/h (2 Bft) 0,00 %
06.10.2015 13:18 15,7 C 61 % 1008,4 hPa 0,0 l/m 2,2 km/h (1 Bft) O 91 5 min 0,000 mm 2,0 UV-I 459 W/m 8,2 C 15,7 C 7,9 km/h (2 Bft) 0,00 %
06.10.2015 13:23 16,0 C 60 % 1008,5 hPa 0,0 l/m 0,0 km/h (0 Bft) NO 41 5 min 0,000 mm 2,0 UV-I 471 W/m 8,2 C 16,0 C 0,0 km/h (0 Bft) 0,00 %
06.10.2015 13:28 16,0 C 63 % 1008,4 hPa 0,0 l/m 4,3 km/h (1 Bft) N-NO 24 5 min 0,000 mm 2,0 UV-I 445 W/m 9,0 C 16,0 C 7,9 km/h (2 Bft) 0,00 %
06.10.2015 13:33 16,0 C 62 % 1008,4 hPa 0,0 l/m 0,7 km/h (0 Bft) NO 43 5 min 0,000 mm 2,0 UV-I 425 W/m 8,7 C 16,0 C 4,0 km/h (1 Bft) 0,00 %
06.10.2015 13:38 16,2 C 61 % 1008,2 hPa 0,0 l/m 2,9 km/h (1 Bft) O 92 5 min 0,000 mm 2,0 UV-I 452 W/m 8,7 C 16,2 C 4,0 km/h (1 Bft) 0,00 %
06.10.2015 13:43 16,4 C 62 % 1008,1 hPa 0,0 l/m 6,5 km/h (2 Bft) O 79 5 min 0,000 mm 2,0 UV-I 516 W/m 9,1 C 16,4 C 7,9 km/h (2 Bft) 0,00 %
06.10.2015 13:48 16,5 C 62 % 1007,7 hPa 0,0 l/m 0,0 km/h (0 Bft) O-NO 65 5 min 0,000 mm 2,0 UV-I 668 W/m 9,2 C 16,5 C 0,0 km/h (0 Bft) 0,00 %
06.10.2015 13:53 16,7 C 61 % 1007,9 hPa 0,0 l/m 7,2 km/h (2 Bft) O-NO 64 5 min 0,000 mm 2,0 UV-I 489 W/m 9,1 C 16,3 C 11,9 km/h (2 Bft) 0,00 %
06.10.2015 13:58 16,9 C 62 % 1007,7 hPa 0,0 l/m 5,8 km/h (2 Bft) O-SO 119 5 min 0,000 mm 2,0 UV-I 658 W/m 9,6 C 16,9 C 7,9 km/h (2 Bft) 0,00 %
06.10.2015 14:03 17,2 C 61 % 1007,6 hPa 0,0 l/m 5,8 km/h (2 Bft) O-NO 74 5 min 0,000 mm 1,0 UV-I 624 W/m 9,6 C 17,2 C 7,9 km/h (2 Bft) 0,00 %
06.10.2015 14:08 17,5 C 58 % 1007,4 hPa 0,0 l/m 10,4 km/h (2 Bft) O 97 5 min 0,000 mm 1,0 UV-I 747 W/m 9,1 C 15,7 C 11,9 km/h (2 Bft) 0,00 %
06.10.2015 14:13 17,6 C 59 % 1007,4 hPa 0,0 l/m 0,0 km/h (0 Bft) NO 46 5 min 0,000 mm 1,0 UV-I 770 W/m 9,5 C 17,6 C 0,0 km/h (0 Bft) 0,00 %
06.10.2015 14:18 17,5 C 60 % 1007,2 hPa 0,0 l/m 8,3 km/h (2 Bft) O 95 5 min 0,000 mm 1,0 UV-I 644 W/m 9,6 C 16,6 C 11,9 km/h (2 Bft) 0,00 %
06.10.2015 14:23 17,6 C 60 % 1007,1 hPa 0,0 l/m 4,0 km/h (1 Bft) SO 128 5 min 0,000 mm 1,0 UV-I 622 W/m 9,7 C 17,6 C 7,9 km/h (2 Bft) 0,00 %
06.10.2015 14:28 17,7 C 58 % 1006,9 hPa 0,0 l/m 9,4 km/h (2 Bft) O 99 5 min 0,000 mm 1,0 UV-I 804 W/m 9,3 C 16,3 C 11,9 km/h (2 Bft) 0,00 %
06.10.2015 14:33 18,0 C 57 % 1006,8 hPa 0,0 l/m 4,7 km/h (1 Bft) O 91 5 min 0,000 mm 1,0 UV-I 796 W/m 9,4 C 18,0 C 7,9 km/h (2 Bft) 0,00 %
06.10.2015 14:38 18,1 C 58 % 1006,7 hPa 0,0 l/m 0,0 km/h (0 Bft) NO 40 5 min 0,000 mm 1,0 UV-I 748 W/m 9,7 C 18,1 C 0,0 km/h (0 Bft) 0,00 %
06.10.2015 14:43 18,2 C 58 % 1006,9 hPa 0,0 l/m 4,0 km/h (1 Bft) O-NO 77 5 min 0,000 mm 1,0 UV-I 585 W/m 9,8 C 18,2 C 7,9 km/h (2 Bft) 0,00 %
06.10.2015 14:48 18,2 C 59 % 1006,8 hPa 0,0 l/m 4,0 km/h (1 Bft) N-NO 33 5 min 0,000 mm 1,0 UV-I 643 W/m 10,1 C 18,2 C 4,0 km/h (1 Bft) 0,00 %
06.10.2015 14:53 18,0 C 60 % 1006,8 hPa 0,0 l/m 5,8 km/h (2 Bft) O 81 5 min 0,000 mm 1,0 UV-I 659 W/m 10,1 C 18,0 C 7,9 km/h (2 Bft) 0,00 %
06.10.2015 14:58 18,0 C 59 % 1006,8 hPa 0,0 l/m 6,8 km/h (2 Bft) O 91 5 min 0,000 mm 1,0 UV-I 588 W/m 9,9 C 17,8 C 7,9 km/h (2 Bft) 0,00 %
06.10.2015 15:03 18,2 C 59 % 1006,8 hPa 0,0 l/m 6,5 km/h (2 Bft) O 93 5 min 0,000 mm 1,0 UV-I 635 W/m 10,1 C 18,2 C 11,9 km/h (2 Bft) 0,00 %
06.10.2015 15:08 18,2 C 58 % 1006,7 hPa 0,0 l/m 2,9 km/h (1 Bft) O-SO 112 5 min 0,000 mm 1,0 UV-I 526 W/m 9,8 C 18,2 C 7,9 km/h (2 Bft) 0,00 %
06.10.2015 15:13 18,0 C 61 % 1006,9 hPa 0,0 l/m 8,3 km/h (2 Bft) O-SO 106 5 min 0,000 mm 1,0 UV-I 335 W/m 10,4 C 17,1 C 11,9 km/h (2 Bft) 0,00 %
06.10.2015 15:18 17,8 C 62 % 1006,9 hPa 0,0 l/m 5,4 km/h (1 Bft) O-NO 59 5 min 0,000 mm 1,0 UV-I 262 W/m 10,4 C 17,8 C 7,9 km/h (2 Bft) 0,00 %
06.10.2015 15:23 17,5 C 63 % 1006,8 hPa 0,0 l/m 6,5 km/h (2 Bft) NO 46 0 min 0,000 mm 1,0 UV-I 248 W/m 10,4 C 17,5 C 11,9 km/h (2 Bft) 0,00 %
06.10.2015 15:28 17,3 C 64 % 1006,7 hPa 0,0 l/m 0,0 km/h (0 Bft) O-NO 71 5 min 0,000 mm 1,0 UV-I 292 W/m 10,4 C 17,3 C 0,0 km/h (0 Bft) 0,00 %
06.10.2015 15:33 17,3 C 64 % 1006,7 hPa 0,0 l/m 0,4 km/h (0 Bft) NO 44 5 min 0,000 mm 1,0 UV-I 293 W/m 10,4 C 17,3 C 4,0 km/h (1 Bft) 0,00 %
06.10.2015 15:38 17,3 C 65 % 1006,7 hPa 0,0 l/m 4,7 km/h (1 Bft) O-NO 65 5 min 0,000 mm 1,0 UV-I 330 W/m 10,7 C 17,3 C 7,9 km/h (2 Bft) 0,00 %
06.10.2015 15:43 17,4 C 65 % 1006,6 hPa 0,0 l/m 9,0 km/h (2 Bft) O 87 5 min 0,000 mm 1,0 UV-I 346 W/m 10,8 C 16,2 C 11,9 km/h (2 Bft) 0,00 %
06.10.2015 15:48 17,6 C 64 % 1006,5 hPa 0,0 l/m 2,9 km/h (1 Bft) O-NO 60 5 min 0,000 mm 1,0 UV-I 344 W/m 10,7 C 17,6 C 7,9 km/h (2 Bft) 0,00 %
06.10.2015 15:53 17,6 C 63 % 1006,4 hPa 0,0 l/m 0,7 km/h (0 Bft) O 81 5 min 0,000 mm 1,0 UV-I 471 W/m 10,5 C 17,6 C 4,0 km/h (1 Bft) 0,00 %
06.10.2015 15:58 17,7 C 62 % 1006,4 hPa 0,0 l/m 9,4 km/h (2 Bft) O-SO 104 5 min 0,000 mm 1,0 UV-I 538 W/m 10,3 C 16,3 C 11,9 km/h (2 Bft) 0,00 %
06.10.2015 16:03 18,0 C 61 % 1006,2 hPa 0,0 l/m 6,5 km/h (2 Bft) O 101 5 min 0,000 mm 1,0 UV-I 544 W/m 10,4 C 18,0 C 7,9 km/h (2 Bft) 0,00 %
06.10.2015 16:08 18,3 C 59 % 1006,2 hPa 0,0 l/m 4,7 km/h (1 Bft) O 87 5 min 0,000 mm 1,0 UV-I 548 W/m 10,1 C 18,3 C 7,9 km/h (2 Bft) 0,00 %
06.10.2015 16:13 18,4 C 61 % 1006,7 hPa 0,0 l/m 9,7 km/h (2 Bft) O 91 5 min 0,000 mm 1,0 UV-I 244 W/m 10,7 C 17,0 C 11,9 km/h (2 Bft) 0,00 %
06.10.2015 16:18 18,2 C 62 % 1006,7 hPa 0,0 l/m 9,0 km/h (2 Bft) O 98 5 min 0,000 mm 1,0 UV-I 219 W/m 10,8 C 17,0 C 11,9 km/h (2 Bft) 0,00 %
06.10.2015 16:23 18,0 C 63 % 1006,8 hPa 0,0 l/m 6,5 km/h (2 Bft) O-SO 106 5 min 0,000 mm 1,0 UV-I 192 W/m 10,8 C 18,0 C 7,9 km/h (2 Bft) 0,00 %
06.10.2015 16:28 17,8 C 64 % 1006,8 hPa 0,0 l/m 6,5 km/h (2 Bft) O-SO 117 0 min 0,000 mm 1,0 UV-I 165 W/m 10,9 C 17,8 C 7,9 km/h (2 Bft) 0,00 %
06.10.2015 16:33 17,7 C 64 % 1006,9 hPa 0,0 l/m 1,8 km/h (1 Bft) O-SO 104 0 min 0,000 mm 1,0 UV-I 136 W/m 10,8 C 17,7 C 4,0 km/h (1 Bft) 0,00 %
06.10.2015 16:38 17,6 C 64 % 1006,7 hPa 0,0 l/m 1,8 km/h (1 Bft) O-SO 110 0 min 0,000 mm 1,0 UV-I 117 W/m 10,7 C 17,6 C 4,0 km/h (1 Bft) 0,00 %
06.10.2015 16:43 17,5 C 64 % 1006,8 hPa 0,0 l/m 5,4 km/h (1 Bft) O-SO 111 0 min 0,000 mm 1,0 UV-I 105 W/m 10,6 C 17,5 C 7,9 km/h (2 Bft) 0,00 %
06.10.2015 16:48 17,3 C 64 % 1006,7 hPa 0,0 l/m 8,3 km/h (2 Bft) O-SO 115 0 min 0,000 mm 1,0 UV-I 98 W/m 10,4 C 16,4 C 11,9 km/h (2 Bft) 0,00 %
06.10.2015 16:53 17,1 C 64 % 1006,6 hPa 0,0 l/m 4,7 km/h (1 Bft) O-SO 104 0 min 0,000 mm 0,0 UV-I 93 W/m 10,2 C 17,1 C 7,9 km/h (2 Bft) 0,00 %
06.10.2015 16:58 16,9 C 64 % 1006,7 hPa 0,0 l/m 5,4 km/h (1 Bft) O 98 0 min 0,000 mm 0,0 UV-I 93 W/m 10,0 C 16,9 C 11,9 km/h (2 Bft) 0,00 %
06.10.2015 17:03 16,8 C 66 % 1006,5 hPa 0,0 l/m 5,8 km/h (2 Bft) NO 55 0 min 0,000 mm 0,0 UV-I 91 W/m 10,4 C 16,8 C 7,9 km/h (2 Bft) 0,00 %
06.10.2015 17:08 16,7 C 67 % 1006,6 hPa 0,0 l/m 4,0 km/h (1 Bft) O 96 0 min 0,000 mm 0,0 UV-I 87 W/m 10,5 C 16,7 C 7,9 km/h (2 Bft) 0,00 %
06.10.2015 17:13 16,7 C 68 % 1006,7 hPa 0,0 l/m 2,2 km/h (1 Bft) NO 41 0 min 0,000 mm 0,0 UV-I 81 W/m 10,8 C 16,7 C 4,0 km/h (1 Bft) 0,00 %
06.10.2015 17:18 16,5 C 68 % 1006,7 hPa 0,0 l/m 4,0 km/h (1 Bft) O-NO 71 0 min 0,000 mm 0,0 UV-I 74 W/m 10,6 C 16,5 C 7,9 km/h (2 Bft) 0,00 %
06.10.2015 17:23 16,5 C 68 % 1006,8 hPa 0,0 l/m 5,4 km/h (1 Bft) O-SO 113 0 min 0,000 mm 0,0 UV-I 70 W/m 10,6 C 16,5 C 7,9 km/h (2 Bft) 0,00 %
06.10.2015 17:28 16,4 C 69 % 1006,8 hPa 0,0 l/m 5,8 km/h (2 Bft) O 98 0 min 0,000 mm 0,0 UV-I 70 W/m 10,7 C 16,4 C 7,9 km/h (2 Bft) 0,00 %
06.10.2015 17:33 16,3 C 69 % 1006,8 hPa 0,0 l/m 1,8 km/h (1 Bft) O 86 0 min 0,000 mm 0,0 UV-I 70 W/m 10,6 C 16,3 C 4,0 km/h (1 Bft) 0,00 %
06.10.2015 17:38 16,2 C 69 % 1006,8 hPa 0,0 l/m 6,5 km/h (2 Bft) O-NO 77 0 min 0,000 mm 0,0 UV-I 70 W/m 10,5 C 16,2 C 11,9 km/h (2 Bft) 0,00 %
06.10.2015 17:43 16,2 C 68 % 1006,5 hPa 0,0 l/m 9,4 km/h (2 Bft) SO 127 0 min 0,000 mm 0,0 UV-I 65 W/m 10,3 C 14,7 C 11,9 km/h (2 Bft) 0,00 %
06.10.2015 17:48 16,1 C 66 % 1006,7 hPa 0,0 l/m 10,4 km/h (2 Bft) O 90 0 min 0,000 mm 0,0 UV-I 57 W/m 9,7 C 14,2 C 11,9 km/h (2 Bft) 0,00 %
06.10.2015 17:53 16,0 C 66 % 1006,5 hPa 0,0 l/m 7,2 km/h (2 Bft) O-SO 105 0 min 0,000 mm 0,0 UV-I 48 W/m 9,7 C 15,6 C 11,9 km/h (2 Bft) 0,00 %
06.10.2015 17:58 16,0 C 67 % 1006,5 hPa 0,0 l/m 9,4 km/h (2 Bft) O-SO 105 0 min 0,000 mm 0,0 UV-I 38 W/m 9,9 C 14,5 C 11,9 km/h (2 Bft) 0,00 %
06.10.2015 18:03 15,8 C 68 % 1006,9 hPa 0,0 l/m 8,3 km/h (2 Bft) O-SO 111 0 min 0,000 mm 0,0 UV-I 30 W/m 9,9 C 14,8 C 11,9 km/h (2 Bft) 0,00 %
06.10.2015 18:08 15,7 C 69 % 1006,8 hPa 0,0 l/m 6,5 km/h (2 Bft) O 91 0 min 0,000 mm 0,0 UV-I 23 W/m 10,0 C 15,7 C 7,9 km/h (2 Bft) 0,00 %
06.10.2015 18:13 15,6 C 70 % 1006,8 hPa 0,0 l/m 9,0 km/h (2 Bft) O 101 0 min 0,000 mm 0,0 UV-I 16 W/m 10,1 C 14,2 C 11,9 km/h (2 Bft) 0,00 %
06.10.2015 18:18 15,4 C 70 % 1006,8 hPa 0,0 l/m 9,4 km/h (2 Bft) O 94 0 min 0,000 mm 0,0 UV-I 7 W/m 10,0 C 13,8 C 11,9 km/h (2 Bft) 0,00 %
06.10.2015 18:23 15,3 C 71 % 1006,9 hPa 0,0 l/m 2,9 km/h (1 Bft) O 84 0 min 0,000 mm 0,0 UV-I 1 W/m 10,1 C 15,3 C 7,9 km/h (2 Bft) 0,00 %
06.10.2015 18:28 15,2 C 72 % 1006,8 hPa 0,0 l/m 8,3 km/h (2 Bft) O 87 0 min 0,000 mm 0,0 UV-I 0 W/m 10,2 C 14,2 C 15,8 km/h (3 Bft) 0,00 %
06.10.2015 18:33 15,1 C 73 % 1006,7 hPa 0,0 l/m 6,5 km/h (2 Bft) O 94 0 min 0,000 mm 0,0 UV-I 0 W/m 10,3 C 15,1 C 7,9 km/h (2 Bft) 0,00 %
06.10.2015 18:38 15,0 C 74 % 1006,9 hPa 0,0 l/m 3,2 km/h (1 Bft) O-NO 69 0 min 0,000 mm 0,0 UV-I 0 W/m 10,4 C 15,0 C 4,0 km/h (1 Bft) 0,00 %
06.10.2015 18:43 14,9 C 76 % 1007,0 hPa 0,0 l/m 3,2 km/h (1 Bft) O-NO 73 0 min 0,000 mm 0,0 UV-I 0 W/m 10,7 C 14,9 C 7,9 km/h (2 Bft) 0,00 %
06.10.2015 18:48 14,9 C 77 % 1006,8 hPa 0,0 l/m 4,0 km/h (1 Bft) O 80 0 min 0,000 mm 0,0 UV-I 0 W/m 10,9 C 14,9 C 7,9 km/h (2 Bft) 0,00 %
06.10.2015 18:53 14,9 C 77 % 1007,1 hPa 0,0 l/m 4,0 km/h (1 Bft) O 81 0 min 0,000 mm 0,0 UV-I 0 W/m 10,9 C 14,9 C 4,0 km/h (1 Bft) 0,00 %
06.10.2015 18:58 14,8 C 78 % 1006,8 hPa 0,0 l/m 2,9 km/h (1 Bft) O-NO 77 0 min 0,000 mm 0,0 UV-I 0 W/m 11,0 C 14,8 C 7,9 km/h (2 Bft) 0,00 %
06.10.2015 19:03 14,7 C 79 % 1006,9 hPa 0,0 l/m 0,4 km/h (0 Bft) O 79 0 min 0,000 mm 0,0 UV-I 0 W/m 11,1 C 14,7 C 4,0 km/h (1 Bft) 0,00 %
06.10.2015 19:08 14,7 C 80 % 1006,9 hPa 0,0 l/m 2,2 km/h (1 Bft) O-SO 112 0 min 0,000 mm 0,0 UV-I 0 W/m 11,3 C 14,7 C 4,0 km/h (1 Bft) 0,00 %
06.10.2015 19:13 14,6 C 80 % 1006,8 hPa 0,0 l/m 0,4 km/h (0 Bft) O-NO 67 0 min 0,000 mm 0,0 UV-I 0 W/m 11,2 C 14,6 C 4,0 km/h (1 Bft) 0,00 %
06.10.2015 19:18 14,6 C 80 % 1006,7 hPa 0,0 l/m 12,2 km/h (2 Bft) O-SO 106 0 min 0,000 mm 0,0 UV-I 0 W/m 11,2 C 11,7 C 15,8 km/h (3 Bft) 0,00 %
06.10.2015 19:23 14,6 C 81 % 1006,7 hPa 0,0 l/m 4,3 km/h (1 Bft) O 93 0 min 0,000 mm 0,0 UV-I 0 W/m 11,4 C 14,6 C 7,9 km/h (2 Bft) 0,00 %
06.10.2015 19:28 14,6 C 81 % 1006,9 hPa 0,0 l/m 2,2 km/h (1 Bft) NO 55 0 min 0,000 mm 0,0 UV-I 0 W/m 11,4 C 14,6 C 11,9 km/h (2 Bft) 0,00 %
06.10.2015 19:33 14,6 C 81 % 1006,9 hPa 0,0 l/m 6,5 km/h (2 Bft) O 92 0 min 0,000 mm 0,0 UV-I 0 W/m 11,4 C 14,6 C 7,9 km/h (2 Bft) 0,00 %
06.10.2015 19:38 14,6 C 81 % 1006,9 hPa 0,0 l/m 6,8 km/h (2 Bft) O-NO 78 0 min 0,000 mm 0,0 UV-I 0 W/m 11,4 C 14,4 C 11,9 km/h (2 Bft) 0,00 %
06.10.2015 19:43 14,6 C 81 % 1006,9 hPa 0,0 l/m 7,9 km/h (2 Bft) O 91 0 min 0,000 mm 0,0 UV-I 0 W/m 11,4 C 13,7 C 11,9 km/h (2 Bft) 0,00 %
06.10.2015 19:48 14,6 C 82 % 1007,0 hPa 0,0 l/m 0,0 km/h (0 Bft) O 100 0 min 0,000 mm 0,0 UV-I 0 W/m 11,6 C 14,6 C 0,0 km/h (0 Bft) 0,00 %
06.10.2015 19:53 14,5 C 82 % 1007,0 hPa 0,0 l/m 5,4 km/h (1 Bft) O 85 0 min 0,000 mm 0,0 UV-I 0 W/m 11,5 C 14,5 C 7,9 km/h (2 Bft) 0,00 %
06.10.2015 19:58 14,5 C 82 % 1007,2 hPa 0,0 l/m 4,3 km/h (1 Bft) O-SO 107 0 min 0,000 mm 0,0 UV-I 0 W/m 11,5 C 14,5 C 7,9 km/h (2 Bft) 0,00 %
06.10.2015 20:03 14,5 C 82 % 1007,1 hPa 0,0 l/m 7,2 km/h (2 Bft) O 86 0 min 0,000 mm 0,0 UV-I 0 W/m 11,5 C 14,0 C 11,9 km/h (2 Bft) 0,00 %
06.10.2015 20:08 14,5 C 82 % 1007,1 hPa 0,0 l/m 9,0 km/h (2 Bft) O-SO 106 0 min 0,000 mm 0,0 UV-I 0 W/m 11,5 C 13,1 C 11,9 km/h (2 Bft) 0,00 %
06.10.2015 20:13 14,5 C 82 % 1007,2 hPa 0,0 l/m 5,8 km/h (2 Bft) O 83 0 min 0,000 mm 0,0 UV-I 0 W/m 11,5 C 14,5 C 11,9 km/h (2 Bft) 0,00 %
06.10.2015 20:18 14,5 C 83 % 1007,3 hPa 0,0 l/m 11,9 km/h (2 Bft) O 85 0 min 0,000 mm 0,0 UV-I 0 W/m 11,6 C 11,7 C 15,8 km/h (3 Bft) 0,00 %
06.10.2015 20:23 14,5 C 83 % 1007,2 hPa 0,0 l/m 6,5 km/h (2 Bft) O-SO 103 0 min 0,000 mm 0,0 UV-I 0 W/m 11,6 C 14,5 C 7,9 km/h (2 Bft) 0,00 %
06.10.2015 20:28 14,5 C 83 % 1007,4 hPa 0,0 l/m 7,2 km/h (2 Bft) NO 51 0 min 0,000 mm 0,0 UV-I 0 W/m 11,6 C 14,0 C 15,8 km/h (3 Bft) 0,00 %
06.10.2015 20:33 14,5 C 83 % 1007,3 hPa 0,0 l/m 2,9 km/h (1 Bft) O 91 0 min 0,000 mm 0,0 UV-I 0 W/m 11,6 C 14,5 C 4,0 km/h (1 Bft) 0,00 %
06.10.2015 20:38 14,5 C 83 % 1007,1 hPa 0,0 l/m 3,2 km/h (1 Bft) O-SO 103 0 min 0,000 mm 0,0 UV-I 0 W/m 11,6 C 14,5 C 4,0 km/h (1 Bft) 0,00 %
06.10.2015 20:43 14,6 C 83 % 1007,2 hPa 0,0 l/m 14,4 km/h (3 Bft) O-SO 106 0 min 0,000 mm 0,0 UV-I 0 W/m 11,7 C 10,9 C 15,8 km/h (3 Bft) 0,00 %
06.10.2015 20:48 14,6 C 83 % 1007,3 hPa 0,0 l/m 3,2 km/h (1 Bft) O 100 0 min 0,000 mm 0,0 UV-I 0 W/m 11,7 C 14,6 C 7,9 km/h (2 Bft) 0,00 %
06.10.2015 20:53 14,5 C 83 % 1007,5 hPa 0,0 l/m 6,8 km/h (2 Bft) O 85 0 min 0,000 mm 0,0 UV-I 0 W/m 11,6 C 14,3 C 11,9 km/h (2 Bft) 0,00 %
06.10.2015 20:58 14,5 C 83 % 1007,2 hPa 0,0 l/m 5,8 km/h (2 Bft) O-NO 70 0 min 0,000 mm 0,0 UV-I 0 W/m 11,6 C 14,5 C 7,9 km/h (2 Bft) 0,00 %
06.10.2015 21:03 14,5 C 83 % 1007,4 hPa 0,0 l/m 0,0 km/h (0 Bft) NO 49 0 min 0,000 mm 0,0 UV-I 0 W/m 11,6 C 14,5 C 0,0 km/h (0 Bft) 0,00 %
06.10.2015 21:08 14,5 C 83 % 1007,3 hPa 0,0 l/m 6,8 km/h (2 Bft) O 84 0 min 0,000 mm 0,0 UV-I 0 W/m 11,6 C 14,3 C 7,9 km/h (2 Bft) 0,00 %
06.10.2015 21:13 14,5 C 83 % 1007,6 hPa 0,0 l/m 5,4 km/h (1 Bft) SO 131 0 min 0,000 mm 0,0 UV-I 0 W/m 11,6 C 14,5 C 11,9 km/h (2 Bft) 0,00 %
06.10.2015 21:18 14,5 C 83 % 1007,5 hPa 0,0 l/m 4,7 km/h (1 Bft) NO 52 0 min 0,000 mm 0,0 UV-I 0 W/m 11,6 C 14,5 C 7,9 km/h (2 Bft) 0,00 %
06.10.2015 21:23 14,5 C 83 % 1007,5 hPa 0,0 l/m 0,0 km/h (0 Bft) O-SO 115 0 min 0,000 mm 0,0 UV-I 0 W/m 11,6 C 14,5 C 0,0 km/h (0 Bft) 0,00 %
06.10.2015 21:28 14,5 C 83 % 1007,6 hPa 0,0 l/m 5,8 km/h (2 Bft) O-SO 115 0 min 0,000 mm 0,0 UV-I 0 W/m 11,6 C 14,5 C 11,9 km/h (2 Bft) 0,00 %
06.10.2015 21:33 14,4 C 83 % 1007,6 hPa 0,0 l/m 0,0 km/h (0 Bft) O 86 0 min 0,000 mm 0,0 UV-I 0 W/m 11,5 C 14,4 C 0,0 km/h (0 Bft) 0,00 %
06.10.2015 21:38 14,4 C 84 % 1007,7 hPa 0,0 l/m 0,4 km/h (0 Bft) O 94 0 min 0,000 mm 0,0 UV-I 0 W/m 11,7 C 14,4 C 4,0 km/h (1 Bft) 0,00 %
06.10.2015 21:43 14,4 C 84 % 1007,6 hPa 0,0 l/m 0,4 km/h (0 Bft) O-NO 76 0 min 0,000 mm 0,0 UV-I 0 W/m 11,7 C 14,4 C 4,0 km/h (1 Bft) 0,00 %
06.10.2015 21:48 14,4 C 84 % 1007,7 hPa 0,0 l/m 0,4 km/h (0 Bft) N-NO 27 0 min 0,000 mm 0,0 UV-I 0 W/m 11,7 C 14,4 C 4,0 km/h (1 Bft) 0,00 %
06.10.2015 21:53 14,4 C 84 % 1007,8 hPa 0,0 l/m 0,0 km/h (0 Bft) O-SO 104 0 min 0,000 mm 0,0 UV-I 0 W/m 11,7 C 14,4 C 0,0 km/h (0 Bft) 0,00 %
06.10.2015 21:58 14,3 C 84 % 1008,1 hPa 0,0 l/m 4,7 km/h (1 Bft) O-NO 75 0 min 0,000 mm 0,0 UV-I 0 W/m 11,6 C 14,3 C 7,9 km/h (2 Bft) 0,00 %
06.10.2015 22:03 14,3 C 84 % 1008,2 hPa 0,0 l/m 2,9 km/h (1 Bft) O-SO 123 0 min 0,000 mm 0,0 UV-I 0 W/m 11,6 C 14,3 C 4,0 km/h (1 Bft) 0,00 %
06.10.2015 22:08 14,3 C 84 % 1008,2 hPa 0,0 l/m 0,4 km/h (0 Bft) O-SO 107 0 min 0,000 mm 0,0 UV-I 0 W/m 11,6 C 14,3 C 4,0 km/h (1 Bft) 0,00 %
06.10.2015 22:13 14,3 C 84 % 1008,5 hPa 0,0 l/m 0,0 km/h (0 Bft) O 81 0 min 0,000 mm 0,0 UV-I 0 W/m 11,6 C 14,3 C 0,0 km/h (0 Bft) 0,00 %
06.10.2015 22:18 14,3 C 84 % 1008,7 hPa 0,0 l/m 0,0 km/h (0 Bft) O-SO 116 0 min 0,000 mm 0,0 UV-I 0 W/m 11,6 C 14,3 C 0,0 km/h (0 Bft) 0,00 %
06.10.2015 22:23 14,2 C 85 % 1009,2 hPa 0,0 l/m 0,0 km/h (0 Bft) SW 223 0 min 0,000 mm 0,0 UV-I 0 W/m 11,7 C 14,2 C 0,0 km/h (0 Bft) 0,00 %
06.10.2015 22:28 14,2 C 85 % 1009,0 hPa 0,0 l/m 0,0 km/h (0 Bft) O-NO 57 0 min 0,000 mm 0,0 UV-I 0 W/m 11,7 C 14,2 C 0,0 km/h (0 Bft) 0,00 %
06.10.2015 22:33 14,1 C 85 % 1009,5 hPa 0,0 l/m 0,0 km/h (0 Bft) SO 144 0 min 0,000 mm 0,0 UV-I 0 W/m 11,6 C 14,1 C 0,0 km/h (0 Bft) 0,00 %
06.10.2015 22:38 14,1 C 87 % 1009,1 hPa 0,0 l/m 0,0 km/h (0 Bft) O-SO 111 0 min 0,000 mm 0,0 UV-I 0 W/m 12,0 C 14,1 C 0,0 km/h (0 Bft) 0,00 %
06.10.2015 22:43 14,0 C 88 % 1009,3 hPa 0,0 l/m 0,0 km/h (0 Bft) O-SO 111 0 min 0,000 mm 0,0 UV-I 0 W/m 12,0 C 14,0 C 0,0 km/h (0 Bft) 0,00 %
06.10.2015 22:48 13,9 C 89 % 1009,5 hPa 0,0 l/m 0,0 km/h (0 Bft) O-NO 68 0 min 0,000 mm 0,0 UV-I 0 W/m 12,1 C 13,9 C 0,0 km/h (0 Bft) 0,00 %
06.10.2015 22:53 13,9 C 90 % 1009,3 hPa 0,0 l/m 0,0 km/h (0 Bft) O-NO 78 0 min 0,000 mm 0,0 UV-I 0 W/m 12,3 C 13,9 C 0,0 km/h (0 Bft) 0,00 %
06.10.2015 22:58 13,7 C 91 % 1009,3 hPa 0,0 l/m 0,0 km/h (0 Bft) O 100 0 min 0,000 mm 0,0 UV-I 0 W/m 12,3 C 13,7 C 0,0 km/h (0 Bft) 0,00 %
06.10.2015 23:03 13,6 C 91 % 1009,3 hPa 0,0 l/m 0,0 km/h (0 Bft) O-NO 61 0 min 0,000 mm 0,0 UV-I 0 W/m 12,2 C 13,6 C 0,0 km/h (0 Bft) 0,00 %
06.10.2015 23:08 13,6 C 91 % 1009,5 hPa 0,0 l/m 0,0 km/h (0 Bft) O-NO 73 0 min 0,000 mm 0,0 UV-I 0 W/m 12,2 C 13,6 C 0,0 km/h (0 Bft) 0,00 %
06.10.2015 23:13 13,5 C 91 % 1009,4 hPa 0,0 l/m 0,0 km/h (0 Bft) O 101 0 min 0,000 mm 0,0 UV-I 0 W/m 12,1 C 13,5 C 0,0 km/h (0 Bft) 0,00 %
06.10.2015 23:18 13,4 C 92 % 1009,4 hPa 0,0 l/m 0,0 km/h (0 Bft) O 85 0 min 0,000 mm 0,0 UV-I 0 W/m 12,1 C 13,4 C 0,0 km/h (0 Bft) 0,00 %
06.10.2015 23:23 13,4 C 92 % 1009,6 hPa 0,0 l/m 0,0 km/h (0 Bft) O-NO 65 0 min 0,000 mm 0,0 UV-I 0 W/m 12,1 C 13,4 C 0,0 km/h (0 Bft) 0,00 %
06.10.2015 23:28 13,3 C 92 % 1009,6 hPa 0,0 l/m 0,0 km/h (0 Bft) O 85 0 min 0,000 mm 0,0 UV-I 0 W/m 12,0 C 13,3 C 0,0 km/h (0 Bft) 0,00 %
06.10.2015 23:33 13,3 C 92 % 1009,6 hPa 0,0 l/m 0,0 km/h (0 Bft) O 95 0 min 0,000 mm 0,0 UV-I 0 W/m 12,0 C 13,3 C 0,0 km/h (0 Bft) 0,00 %
06.10.2015 23:38 13,3 C 93 % 1009,5 hPa 0,0 l/m 0,0 km/h (0 Bft) O-NO 69 0 min 0,000 mm 0,0 UV-I 0 W/m 12,2 C 13,3 C 0,0 km/h (0 Bft) 0,00 %
06.10.2015 23:43 13,3 C 93 % 1009,6 hPa 0,0 l/m 0,0 km/h (0 Bft) O-SO 106 0 min 0,000 mm 0,0 UV-I 0 W/m 12,2 C 13,3 C 0,0 km/h (0 Bft) 0,00 %
06.10.2015 23:48 13,3 C 93 % 1009,7 hPa 0,0 l/m 0,0 km/h (0 Bft) O 82 0 min 0,000 mm 0,0 UV-I 0 W/m 12,2 C 13,3 C 0,0 km/h (0 Bft) 0,00 %
06.10.2015 23:53 13,3 C 93 % 1009,9 hPa 0,0 l/m 0,0 km/h (0 Bft) S 182 0 min 0,000 mm 0,0 UV-I 0 W/m 12,2 C 13,3 C 0,0 km/h (0 Bft) 0,00 %
06.10.2015 23:58 13,3 C 93 % 1009,5 hPa 0,0 l/m 0,0 km/h (0 Bft) S 176 0 min 0,000 mm 0,0 UV-I 0 W/m 12,2 C 13,3 C 0,0 km/h (0 Bft) 0,00 %
_ Min-Zeit 02:47 14:33 16:03 - 00:02 - - - - - - 02:47 02:47 00:02 00:02
Minimum _ 6,6 C 57 % 1006,2 hPa - 0,0 km/h (0 Bft) - - - - - - 6,2 C 6,6 C 0,0 km/h (0 Bft) 0,00 %
_ Max-Zeit 16:13 01:12 00:02 07:37 20:43 - - 10:48 00:02 10:53 14:28 22:53 16:08 18:28 00:02
Maximum _ 18,4 C 97 % 1011,9 hPa 0,3 l/m 14,4 km/h
O-SO (3 Bft)
- - 5 min 0,000 mm 2,0 UV-I 804 W/m 12,3 C 18,3 C 15,8 km/h
O (3 Bft)
0,00 %
Durchschnitt _ 12,1 C 83 % 1009,1 hPa #0,3 l/m 2,3 km/h (1 Bft) O - #5:35 h #0,000 mm 1,4 UV-I 272 W/m 9,1 C 11,9 C 3,8 km/h (1 Bft) 0,00 %